sensor_id;sensor_type;location;lat;lon;timestamp;pressure;altitude;pressure_sealevel;temperature;humidity
79000;BME280;68406;53.914;27.416;2023-12-20T00:01:38;974.5;;;5.2;86.9
79000;BME280;68406;53.914;27.416;2023-12-20T00:07:18;974.5;;;5.2;86.9
79000;BME280;68406;53.914;27.416;2023-12-20T00:11:58;974.5;;;5.2;86.8
79000;BME280;68406;53.914;27.416;2023-12-20T00:17:18;974.5;;;5.2;86.7
79000;BME280;68406;53.914;27.416;2023-12-20T00:22:08;974.5;;;5.2;86.5
79000;BME280;68406;53.914;27.416;2023-12-20T00:26:38;974.5;;;5.2;86.6
79000;BME280;68406;53.914;27.416;2023-12-20T00:32:17;974.4;;;5.2;86.7
79000;BME280;68406;53.914;27.416;2023-12-20T00:36:41;974.3;;;5.2;86.6
79000;BME280;68406;53.914;27.416;2023-12-20T00:42:04;974.3;;;5.2;86.5
79000;BME280;68406;53.914;27.416;2023-12-20T00:46:38;974.2;;;5.2;86.6
79000;BME280;68406;53.914;27.416;2023-12-20T00:51:44;974.1;;;5.2;86.6
79000;BME280;68406;53.914;27.416;2023-12-20T00:57:16;974.1;;;5.1;86.6
79000;BME280;68406;53.914;27.416;2023-12-20T01:02:08;974.1;;;5.2;86.5
79000;BME280;68406;53.914;27.416;2023-12-20T01:07:18;974;;;5.2;86.5
79000;BME280;68406;53.914;27.416;2023-12-20T01:12:09;974;;;5.2;86.4
79000;BME280;68406;53.914;27.416;2023-12-20T01:16:54;974;;;5.2;86.3
79000;BME280;68406;53.914;27.416;2023-12-20T01:22:18;974;;;5.2;86.2
79000;BME280;68406;53.914;27.416;2023-12-20T01:26:48;973.8;;;5.2;86.1
79000;BME280;68406;53.914;27.416;2023-12-20T01:31:46;973.8;;;5.2;86.1
79000;BME280;68406;53.914;27.416;2023-12-20T01:36:46;973.9;;;5.3;86.1
79000;BME280;68406;53.914;27.416;2023-12-20T01:41:44;973.8;;;5.3;85.9
79000;BME280;68406;53.914;27.416;2023-12-20T01:47:18;973.7;;;5.3;85.9
79000;BME280;68406;53.914;27.416;2023-12-20T01:51:46;973.6;;;5.3;85.8
79000;BME280;68406;53.914;27.416;2023-12-20T01:57:16;973.5;;;5.3;85.7
79000;BME280;68406;53.914;27.416;2023-12-20T02:02:08;973.5;;;5.3;85.7
79000;BME280;68406;53.914;27.416;2023-12-20T02:06:38;973.4;;;5.3;85.6
79000;BME280;68406;53.914;27.416;2023-12-20T02:12:18;973.4;;;5.3;85.6
79000;BME280;68406;53.914;27.416;2023-12-20T02:17:08;973.4;;;5.3;85.5
79000;BME280;68406;53.914;27.416;2023-12-20T02:22:18;973.4;;;5.3;85.4
79000;BME280;68406;53.914;27.416;2023-12-20T02:26:46;973.3;;;5.3;85.3
79000;BME280;68406;53.914;27.416;2023-12-20T02:31:56;973.2;;;5.3;85.2
79000;BME280;68406;53.914;27.416;2023-12-20T02:37:09;973.1;;;5.3;85.2
79000;BME280;68406;53.914;27.416;2023-12-20T02:42:18;973.1;;;5.4;85.1
79000;BME280;68406;53.914;27.416;2023-12-20T02:46:38;973.1;;;5.4;85
79000;BME280;68406;53.914;27.416;2023-12-20T02:51:40;973;;;5.4;85
79000;BME280;68406;53.914;27.416;2023-12-20T02:56:54;972.9;;;5.4;84.9
79000;BME280;68406;53.914;27.416;2023-12-20T03:01:54;972.9;;;5.4;84.8
79000;BME280;68406;53.914;27.416;2023-12-20T03:07:18;972.8;;;5.4;84.9
79000;BME280;68406;53.914;27.416;2023-12-20T03:11:39;972.8;;;5.4;84.9
79000;BME280;68406;53.914;27.416;2023-12-20T03:16:47;972.9;;;5.3;85
79000;BME280;68406;53.914;27.416;2023-12-20T03:21:58;972.9;;;5.3;85.1
79000;BME280;68406;53.914;27.416;2023-12-20T03:27:08;972.9;;;5.3;85.1
79000;BME280;68406;53.914;27.416;2023-12-20T03:32:18;972.8;;;5.3;85.1
79000;BME280;68406;53.914;27.416;2023-12-20T03:37:08;972.8;;;5.3;85.1
79000;BME280;68406;53.914;27.416;2023-12-20T03:42:05;972.9;;;5.3;85.1
79000;BME280;68406;53.914;27.416;2023-12-20T03:46:54;972.9;;;5.3;85.1
79000;BME280;68406;53.914;27.416;2023-12-20T03:52:21;972.9;;;5.3;85.1
79000;BME280;68406;53.914;27.416;2023-12-20T03:57:18;972.8;;;5.4;85.1
79000;BME280;68406;53.914;27.416;2023-12-20T04:01:52;972.8;;;5.4;85.1
79000;BME280;68406;53.914;27.416;2023-12-20T04:06:55;972.8;;;5.4;85.2
79000;BME280;68406;53.914;27.416;2023-12-20T04:11:45;972.8;;;5.3;85.2
79000;BME280;68406;53.914;27.416;2023-12-20T04:16:41;972.7;;;5.3;85.2
79000;BME280;68406;53.914;27.416;2023-12-20T04:22:19;972.7;;;5.3;85.3
79000;BME280;68406;53.914;27.416;2023-12-20T04:27:09;972.7;;;5.3;85.3
79000;BME280;68406;53.914;27.416;2023-12-20T04:32:05;972.7;;;5.3;85.4
79000;BME280;68406;53.914;27.416;2023-12-20T04:36:47;972.8;;;5.3;85.3
79000;BME280;68406;53.914;27.416;2023-12-20T04:41:55;972.9;;;5.3;85.3
79000;BME280;68406;53.914;27.416;2023-12-20T04:47:19;972.9;;;5.3;85.3
79000;BME280;68406;53.914;27.416;2023-12-20T04:51:39;972.9;;;5.2;85.3
79000;BME280;68406;53.914;27.416;2023-12-20T04:56:47;972.9;;;5.2;85.3
79000;BME280;68406;53.914;27.416;2023-12-20T05:01:50;972.8;;;5.2;85.4
79000;BME280;68406;53.914;27.416;2023-12-20T05:07:07;972.8;;;5.1;85.6
79000;BME280;68406;53.914;27.416;2023-12-20T05:12:19;972.7;;;5.1;85.6
79000;BME280;68406;53.914;27.416;2023-12-20T05:16:47;972.6;;;5.1;85.6
79000;BME280;68406;53.914;27.416;2023-12-20T05:21:47;972.6;;;5.1;85.6
79000;BME280;68406;53.914;27.416;2023-12-20T05:26:39;972.5;;;5;85.6
79000;BME280;68406;53.914;27.416;2023-12-20T05:31:55;972.6;;;5;85.6
79000;BME280;68406;53.914;27.416;2023-12-20T05:37:19;972.6;;;5;85.5
79000;BME280;68406;53.914;27.416;2023-12-20T05:41:57;972.6;;;5;85.5
79000;BME280;68406;53.914;27.416;2023-12-20T05:47:19;972.6;;;5;85.3
79000;BME280;68406;53.914;27.416;2023-12-20T05:51:45;972.6;;;5.1;85.2
79000;BME280;68406;53.914;27.416;2023-12-20T05:57:09;972.5;;;5.1;85.1
79000;BME280;68406;53.914;27.416;2023-12-20T06:02:01;972.6;;;5.1;85.1
79000;BME280;68406;53.914;27.416;2023-12-20T06:07:09;972.6;;;5.1;85.1
79000;BME280;68406;53.914;27.416;2023-12-20T06:12:19;972.7;;;5.1;85
79000;BME280;68406;53.914;27.416;2023-12-20T06:16:39;972.7;;;5.1;84.9
79000;BME280;68406;53.914;27.416;2023-12-20T06:21:39;972.7;;;5.1;84.8
79000;BME280;68406;53.914;27.416;2023-12-20T06:27:19;972.7;;;5.1;84.8
79000;BME280;68406;53.914;27.416;2023-12-20T06:31:39;972.7;;;5.1;84.8
79000;BME280;68406;53.914;27.416;2023-12-20T06:36:39;972.8;;;5.2;84.7
79000;BME280;68406;53.914;27.416;2023-12-20T06:41:39;972.8;;;5.2;84.6
79000;BME280;68406;53.914;27.416;2023-12-20T06:47:09;972.8;;;5.2;84.4
79000;BME280;68406;53.914;27.416;2023-12-20T06:52:11;972.9;;;5.3;84.3
79000;BME280;68406;53.914;27.416;2023-12-20T06:56:55;972.9;;;5.3;84.2
79000;BME280;68406;53.914;27.416;2023-12-20T07:02:03;973;;;5.4;84.1
79000;BME280;68406;53.914;27.416;2023-12-20T07:06:39;973;;;5.4;83.9
79000;BME280;68406;53.914;27.416;2023-12-20T07:11:55;973;;;5.5;83.8
79000;BME280;68406;53.914;27.416;2023-12-20T07:17:11;973;;;5.5;83.6
79000;BME280;68406;53.914;27.416;2023-12-20T07:22:01;973;;;5.5;83.6
79000;BME280;68406;53.914;27.416;2023-12-20T07:26:47;973;;;5.6;83.5
79000;BME280;68406;53.914;27.416;2023-12-20T07:32:11;973.1;;;5.6;83.4
79000;BME280;68406;53.914;27.416;2023-12-20T07:37:09;973;;;5.7;83.2
79000;BME280;68406;53.914;27.416;2023-12-20T07:42:19;972.9;;;5.7;83.2
79000;BME280;68406;53.914;27.416;2023-12-20T07:46:53;972.9;;;5.8;83.1
79000;BME280;68406;53.914;27.416;2023-12-20T07:52:01;972.9;;;5.8;83
79000;BME280;68406;53.914;27.416;2023-12-20T07:56:57;972.9;;;5.8;82.9
79000;BME280;68406;53.914;27.416;2023-12-20T08:01:45;972.9;;;5.9;82.8
79000;BME280;68406;53.914;27.416;2023-12-20T08:07:21;972.8;;;5.9;82.6
79000;BME280;68406;53.914;27.416;2023-12-20T08:11:39;972.9;;;6;82.5
79000;BME280;68406;53.914;27.416;2023-12-20T08:16:47;973;;;6;82.4
79000;BME280;68406;53.914;27.416;2023-12-20T08:22:21;973;;;5.9;82.6
79000;BME280;68406;53.914;27.416;2023-12-20T08:27:09;973.1;;;5.9;82.6
79000;BME280;68406;53.914;27.416;2023-12-20T08:32:10;973.1;;;5.9;82.7
79000;BME280;68406;53.914;27.416;2023-12-20T08:36:39;973.1;;;5.9;82.7
79000;BME280;68406;53.914;27.416;2023-12-20T08:42:05;973.1;;;6;82.6
79000;BME280;68406;53.914;27.416;2023-12-20T08:47:21;973.2;;;6;82.6
79000;BME280;68406;53.914;27.416;2023-12-20T08:51:53;973.1;;;5.9;82.7
79000;BME280;68406;53.914;27.416;2023-12-20T08:57:19;973;;;5.8;83
79000;BME280;68406;53.914;27.416;2023-12-20T09:02:09;973;;;5.9;83.1
79000;BME280;68406;53.914;27.416;2023-12-20T09:06:47;973;;;5.8;83.1
79000;BME280;68406;53.914;27.416;2023-12-20T09:12:01;973;;;5.8;83.2
79000;BME280;68406;53.914;27.416;2023-12-20T09:17:01;973;;;5.8;83
79000;BME280;68406;53.914;27.416;2023-12-20T09:22:11;972.9;;;5.9;82.8
79000;BME280;68406;53.914;27.416;2023-12-20T09:26:47;972.8;;;5.9;82.6
79000;BME280;68406;53.914;27.416;2023-12-20T09:31:49;972.8;;;6;82.5
79000;BME280;68406;53.914;27.416;2023-12-20T09:37:19;972.8;;;6;82.3
79000;BME280;68406;53.914;27.416;2023-12-20T09:41:40;972.8;;;6.2;82.1
79000;BME280;68406;53.914;27.416;2023-12-20T09:47:19;972.8;;;6.2;82
79000;BME280;68406;53.914;27.416;2023-12-20T09:52:21;972.7;;;6.2;82
79000;BME280;68406;53.914;27.416;2023-12-20T09:56:47;972.7;;;6.2;81.9
79000;BME280;68406;53.914;27.416;2023-12-20T10:02:19;972.5;;;6.2;82
79000;BME280;68406;53.914;27.416;2023-12-20T10:07:09;972.4;;;6.2;82
79000;BME280;68406;53.914;27.416;2023-12-20T10:12:21;972.4;;;6.2;82.1
79000;BME280;68406;53.914;27.416;2023-12-20T10:16:57;972.3;;;6.1;82.2
79000;BME280;68406;53.914;27.416;2023-12-20T10:22:05;972.2;;;6.1;82.3
79000;BME280;68406;53.914;27.416;2023-12-20T10:27:21;972.2;;;6.1;82.2
79000;BME280;68406;53.914;27.416;2023-12-20T10:32:25;972.1;;;6;82.1
79000;BME280;68406;53.914;27.416;2023-12-20T10:37:23;972;;;6.1;82.2
79000;BME280;68406;53.914;27.416;2023-12-20T10:41:51;972;;;6.1;81.7
79000;BME280;68406;53.914;27.416;2023-12-20T10:47:17;972.1;;;6.2;81.7
79000;BME280;68406;53.914;27.416;2023-12-20T10:52:21;972.1;;;6.3;81.4
79000;BME280;68406;53.914;27.416;2023-12-20T10:57:09;972.1;;;6.3;81.3
79000;BME280;68406;53.914;27.416;2023-12-20T11:02:11;972.1;;;6.2;81.1
79000;BME280;68406;53.914;27.416;2023-12-20T11:06:56;972.2;;;6.2;81.1
79000;BME280;68406;53.914;27.416;2023-12-20T11:12:08;972.1;;;6.2;81.2
79000;BME280;68406;53.914;27.416;2023-12-20T11:17:05;972.1;;;6.2;81.2
79000;BME280;68406;53.914;27.416;2023-12-20T11:22:17;972;;;6.2;80.9
79000;BME280;68406;53.914;27.416;2023-12-20T11:27:21;972;;;6.2;81
79000;BME280;68406;53.914;27.416;2023-12-20T11:31:47;972;;;6.2;81.1
79000;BME280;68406;53.914;27.416;2023-12-20T11:36:58;972;;;6.2;81.1
79000;BME280;68406;53.914;27.416;2023-12-20T11:42:03;971.9;;;6.1;81.2
79000;BME280;68406;53.914;27.416;2023-12-20T11:46:51;971.9;;;6.1;81.5
79000;BME280;68406;53.914;27.416;2023-12-20T11:51:55;971.9;;;6;81.8
79000;BME280;68406;53.914;27.416;2023-12-20T11:57:21;971.9;;;6;82.2
79000;BME280;68406;53.914;27.416;2023-12-20T12:02:21;971.9;;;5.9;82.6
79000;BME280;68406;53.914;27.416;2023-12-20T12:07:05;971.9;;;5.8;82.7
79000;BME280;68406;53.914;27.416;2023-12-20T12:11:47;971.8;;;5.8;82.8
79000;BME280;68406;53.914;27.416;2023-12-20T12:16:39;971.8;;;5.8;83
79000;BME280;68406;53.914;27.416;2023-12-20T12:21:47;971.8;;;5.8;83.1
79000;BME280;68406;53.914;27.416;2023-12-20T12:26:49;971.7;;;5.8;83.3
79000;BME280;68406;53.914;27.416;2023-12-20T12:32:13;971.7;;;5.7;83.6
79000;BME280;68406;53.914;27.416;2023-12-20T12:36:39;971.7;;;5.8;83.6
79000;BME280;68406;53.914;27.416;2023-12-20T12:42:07;971.7;;;5.7;83.4
79000;BME280;68406;53.914;27.416;2023-12-20T12:47:13;971.6;;;5.7;83.7
79000;BME280;68406;53.914;27.416;2023-12-20T12:52:07;971.5;;;5.7;83.9
79000;BME280;68406;53.914;27.416;2023-12-20T12:57:05;971.5;;;5.7;83.8
79000;BME280;68406;53.914;27.416;2023-12-20T13:01:39;971.5;;;5.7;84
79000;BME280;68406;53.914;27.416;2023-12-20T13:06:47;971.6;;;5.6;84.1
79000;BME280;68406;53.914;27.416;2023-12-20T13:11:59;971.5;;;5.6;84.1
79000;BME280;68406;53.914;27.416;2023-12-20T13:16:39;971.5;;;5.6;84.1
79000;BME280;68406;53.914;27.416;2023-12-20T13:22:21;971.4;;;5.6;84.1
79000;BME280;68406;53.914;27.416;2023-12-20T13:27:21;971.4;;;5.6;84.1
79000;BME280;68406;53.914;27.416;2023-12-20T13:31:57;971.4;;;5.6;84.1
79000;BME280;68406;53.914;27.416;2023-12-20T13:37:19;971.4;;;5.6;84
79000;BME280;68406;53.914;27.416;2023-12-20T13:41:57;971.3;;;5.6;84
79000;BME280;68406;53.914;27.416;2023-12-20T13:47:07;971.3;;;5.5;84.2
79000;BME280;68406;53.914;27.416;2023-12-20T13:51:53;971.3;;;5.5;84.2
79000;BME280;68406;53.914;27.416;2023-12-20T13:56:39;971.3;;;5.4;84.4
79000;BME280;68406;53.914;27.416;2023-12-20T14:02:01;971.2;;;5.5;84.5
79000;BME280;68406;53.914;27.416;2023-12-20T14:06:47;971.1;;;5.5;84.3
79000;BME280;68406;53.914;27.416;2023-12-20T14:12:19;971.1;;;5.6;84.1
79000;BME280;68406;53.914;27.416;2023-12-20T14:16:59;971.1;;;5.6;84.1
79000;BME280;68406;53.914;27.416;2023-12-20T14:22:05;971.1;;;5.6;83.9
79000;BME280;68406;53.914;27.416;2023-12-20T14:27:21;971;;;5.6;83.7
79000;BME280;68406;53.914;27.416;2023-12-20T14:32:05;971;;;5.5;83.6
79000;BME280;68406;53.914;27.416;2023-12-20T14:36:47;970.9;;;5.5;83.5
79000;BME280;68406;53.914;27.416;2023-12-20T14:41:39;970.8;;;5.5;83.5
79000;BME280;68406;53.914;27.416;2023-12-20T14:46:39;970.8;;;5.5;83.6
79000;BME280;68406;53.914;27.416;2023-12-20T14:51:39;970.8;;;5.5;83.7
79000;BME280;68406;53.914;27.416;2023-12-20T14:57:03;970.8;;;5.5;83.7
79000;BME280;68406;53.914;27.416;2023-12-20T15:02:21;970.7;;;5.5;83.7
79000;BME280;68406;53.914;27.416;2023-12-20T15:06:39;970.7;;;5.4;83.6
79000;BME280;68406;53.914;27.416;2023-12-20T15:11:41;970.6;;;5.3;84.2
79000;BME280;68406;53.914;27.416;2023-12-20T15:17:19;970.6;;;5.1;84.7
79000;BME280;68406;53.914;27.416;2023-12-20T15:21:57;970.6;;;5;84.8
79000;BME280;68406;53.914;27.416;2023-12-20T15:27:07;970.6;;;5;85
79000;BME280;68406;53.914;27.416;2023-12-20T15:31:47;970.5;;;5;84.9
79000;BME280;68406;53.914;27.416;2023-12-20T15:36:45;970.5;;;5.1;84.5
79000;BME280;68406;53.914;27.416;2023-12-20T15:41:39;970.5;;;5.1;84.1
79000;BME280;68406;53.914;27.416;2023-12-20T15:46:47;970.5;;;5.1;83.7
79000;BME280;68406;53.914;27.416;2023-12-20T15:52:17;970.5;;;5;83.5
79000;BME280;68406;53.914;27.416;2023-12-20T15:56:47;970.4;;;5;83.4
79000;BME280;68406;53.914;27.416;2023-12-20T16:02:03;970.3;;;5;83.4
79000;BME280;68406;53.914;27.416;2023-12-20T16:07:07;970.3;;;5;83.7
79000;BME280;68406;53.914;27.416;2023-12-20T16:11:41;970.3;;;5;83.8
79000;BME280;68406;53.914;27.416;2023-12-20T16:17:17;970.2;;;4.9;83.8
79000;BME280;68406;53.914;27.416;2023-12-20T16:21:55;970.3;;;4.9;83.9
79000;BME280;68406;53.914;27.416;2023-12-20T16:26:55;970.3;;;4.9;83.8
79000;BME280;68406;53.914;27.416;2023-12-20T16:31:47;970.2;;;4.8;83.4
79000;BME280;68406;53.914;27.416;2023-12-20T16:37:11;970.3;;;4.8;83
79000;BME280;68406;53.914;27.416;2023-12-20T16:42:07;970.3;;;4.8;82.7
79000;BME280;68406;53.914;27.416;2023-12-20T16:47:23;970.2;;;4.7;82.6
79000;BME280;68406;53.914;27.416;2023-12-20T16:52:11;970.2;;;4.7;82.6
79000;BME280;68406;53.914;27.416;2023-12-20T16:57:07;970.2;;;4.7;82.3
79000;BME280;68406;53.914;27.416;2023-12-20T17:02:19;970.3;;;4.7;82.3
79000;BME280;68406;53.914;27.416;2023-12-20T17:07:21;970.3;;;4.6;82.3
79000;BME280;68406;53.914;27.416;2023-12-20T17:11:39;970.2;;;4.6;82.3
79000;BME280;68406;53.914;27.416;2023-12-20T17:16:39;970;;;4.6;82.1
79000;BME280;68406;53.914;27.416;2023-12-20T17:22:19;970;;;4.6;82
79000;BME280;68406;53.914;27.416;2023-12-20T17:26:59;969.9;;;4.6;82.3
79000;BME280;68406;53.914;27.416;2023-12-20T17:32:11;969.9;;;4.5;82.5
79000;BME280;68406;53.914;27.416;2023-12-20T17:36:47;969.9;;;4.5;82.7
79000;BME280;68406;53.914;27.416;2023-12-20T17:42:21;970;;;4.4;82.7
79000;BME280;68406;53.914;27.416;2023-12-20T17:47:11;970;;;4.4;82.8
79000;BME280;68406;53.914;27.416;2023-12-20T17:51:39;969.8;;;4.3;82.8
79000;BME280;68406;53.914;27.416;2023-12-20T17:57:23;969.7;;;4.3;82.8
79000;BME280;68406;53.914;27.416;2023-12-20T18:02:03;969.5;;;4.3;82.8
79000;BME280;68406;53.914;27.416;2023-12-20T18:06:39;969.3;;;4.3;82.2
79000;BME280;68406;53.914;27.416;2023-12-20T18:11:51;969.3;;;4.2;82
79000;BME280;68406;53.914;27.416;2023-12-20T18:16:39;969.2;;;4.2;81.4
79000;BME280;68406;53.914;27.416;2023-12-20T18:21:59;969.1;;;4.2;80.6
79000;BME280;68406;53.914;27.416;2023-12-20T18:26:39;969.2;;;4.1;79.6
79000;BME280;68406;53.914;27.416;2023-12-20T18:32:17;969.3;;;4;79.4
79000;BME280;68406;53.914;27.416;2023-12-20T18:37:11;969.3;;;4;79.2
79000;BME280;68406;53.914;27.416;2023-12-20T18:41:55;969.3;;;3.9;79.4
79000;BME280;68406;53.914;27.416;2023-12-20T18:47:21;969.3;;;3.9;79.5
79000;BME280;68406;53.914;27.416;2023-12-20T18:51:47;969.2;;;3.8;79.8
79000;BME280;68406;53.914;27.416;2023-12-20T18:56:53;969.2;;;3.8;79.8
79000;BME280;68406;53.914;27.416;2023-12-20T19:02:01;969.3;;;3.8;79.8
79000;BME280;68406;53.914;27.416;2023-12-20T19:07:09;969.3;;;3.8;79.9
79000;BME280;68406;53.914;27.416;2023-12-20T19:12:09;969.2;;;3.8;80.1
79000;BME280;68406;53.914;27.416;2023-12-20T19:16:51;969.2;;;3.8;80.3
79000;BME280;68406;53.914;27.416;2023-12-20T19:22:17;969.2;;;3.8;80.4
79000;BME280;68406;53.914;27.416;2023-12-20T19:27:13;969.2;;;3.8;80.4
79000;BME280;68406;53.914;27.416;2023-12-20T19:32:19;969.2;;;3.8;80.4
79000;BME280;68406;53.914;27.416;2023-12-20T19:37:23;969.2;;;3.8;80.5
79000;BME280;68406;53.914;27.416;2023-12-20T19:41:39;969.2;;;3.9;80.5
79000;BME280;68406;53.914;27.416;2023-12-20T19:47:15;969.1;;;3.9;80.5
79000;BME280;68406;53.914;27.416;2023-12-20T19:51:47;969.1;;;3.8;80.7
79000;BME280;68406;53.914;27.416;2023-12-20T19:56:51;969.1;;;3.8;81
79000;BME280;68406;53.914;27.416;2023-12-20T20:02:03;969.1;;;3.8;81.1
79000;BME280;68406;53.914;27.416;2023-12-20T20:07:01;969.1;;;3.8;81.1
79000;BME280;68406;53.914;27.416;2023-12-20T20:12:21;969.1;;;3.7;81.3
79000;BME280;68406;53.914;27.416;2023-12-20T20:17:01;969;;;3.7;81.4
79000;BME280;68406;53.914;27.416;2023-12-20T20:21:39;969;;;3.6;81.6
79000;BME280;68406;53.914;27.416;2023-12-20T20:27:21;968.9;;;3.6;81.7
79000;BME280;68406;53.914;27.416;2023-12-20T20:31:55;968.9;;;3.6;81.7
79000;BME280;68406;53.914;27.416;2023-12-20T20:36:45;969;;;3.5;81.6
79000;BME280;68406;53.914;27.416;2023-12-20T20:41:47;969;;;3.5;81.5
79000;BME280;68406;53.914;27.416;2023-12-20T20:46:47;969;;;3.6;81.4
79000;BME280;68406;53.914;27.416;2023-12-20T20:52:23;968.9;;;3.6;81.3
79000;BME280;68406;53.914;27.416;2023-12-20T20:57:11;968.9;;;3.6;81.3
79000;BME280;68406;53.914;27.416;2023-12-20T21:01:47;968.8;;;3.5;81.3
79000;BME280;68406;53.914;27.416;2023-12-20T21:06:41;968.7;;;3.5;81.4
79000;BME280;68406;53.914;27.416;2023-12-20T21:12:03;968.6;;;3.4;81.4
79000;BME280;68406;53.914;27.416;2023-12-20T21:17:17;968.5;;;3.4;81.4
79000;BME280;68406;53.914;27.416;2023-12-20T21:21:55;968.5;;;3.4;81.4
79000;BME280;68406;53.914;27.416;2023-12-20T21:26:55;968.5;;;3.3;81.4
79000;BME280;68406;53.914;27.416;2023-12-20T21:32:11;968.6;;;3.3;81.3
79000;BME280;68406;53.914;27.416;2023-12-20T21:36:59;968.6;;;3.3;81.1
79000;BME280;68406;53.914;27.416;2023-12-20T21:42:21;968.5;;;3.3;81.2
79000;BME280;68406;53.914;27.416;2023-12-20T21:47:11;968.4;;;3.3;81.3
79000;BME280;68406;53.914;27.416;2023-12-20T21:52:05;968.4;;;3.4;81.4
79000;BME280;68406;53.914;27.416;2023-12-20T21:57:09;968.3;;;3.3;81.3
79000;BME280;68406;53.914;27.416;2023-12-20T22:01:53;968.3;;;3.3;81.4
79000;BME280;68406;53.914;27.416;2023-12-20T22:07:19;968.2;;;3.3;81.4
79000;BME280;68406;53.914;27.416;2023-12-20T22:12:23;968.2;;;3.4;81.3
79000;BME280;68406;53.914;27.416;2023-12-20T22:16:39;968.1;;;3.4;81.4
79000;BME280;68406;53.914;27.416;2023-12-20T22:21:47;968.1;;;3.4;81.6
79000;BME280;68406;53.914;27.416;2023-12-20T22:26:51;968;;;3.4;81.7
79000;BME280;68406;53.914;27.416;2023-12-20T22:32:23;968.1;;;3.3;82
79000;BME280;68406;53.914;27.416;2023-12-20T22:37:11;968;;;3.2;82.3
79000;BME280;68406;53.914;27.416;2023-12-20T22:41:47;968;;;3.2;82.6
79000;BME280;68406;53.914;27.416;2023-12-20T22:47:01;968;;;3.1;82.8
79000;BME280;68406;53.914;27.416;2023-12-20T22:52:23;967.8;;;3.1;83
79000;BME280;68406;53.914;27.416;2023-12-20T22:57:17;967.8;;;3.1;83.1
79000;BME280;68406;53.914;27.416;2023-12-20T23:01:45;967.7;;;3.1;83
79000;BME280;68406;53.914;27.416;2023-12-20T23:06:53;967.7;;;3.1;83
79000;BME280;68406;53.914;27.416;2023-12-20T23:11:39;967.8;;;3.1;83
79000;BME280;68406;53.914;27.416;2023-12-20T23:16:39;967.8;;;3.1;82.8
79000;BME280;68406;53.914;27.416;2023-12-20T23:22:23;967.7;;;3.1;82.7
79000;BME280;68406;53.914;27.416;2023-12-20T23:27:13;967.6;;;3.2;82.7
79000;BME280;68406;53.914;27.416;2023-12-20T23:31:53;967.6;;;3.2;82.5
79000;BME280;68406;53.914;27.416;2023-12-20T23:37:09;967.6;;;3.3;82.5
79000;BME280;68406;53.914;27.416;2023-12-20T23:42:09;967.6;;;3.3;82.5
79000;BME280;68406;53.914;27.416;2023-12-20T23:47:21;967.6;;;3.3;82.4
79000;BME280;68406;53.914;27.416;2023-12-20T23:51:45;967.5;;;3.4;82
79000;BME280;68406;53.914;27.416;2023-12-20T23:56:47;967.5;;;3.5;81.6
